sensor_id;sensor_type;location;lat;lon;timestamp;P1;durP1;ratioP1;P2;durP2;ratioP2
7031;SDS011;3557;48.880;8.328;2023-07-30T00:02:18;3.70;;;2.42;;
7031;SDS011;3557;48.880;8.328;2023-07-30T00:04:45;4.57;;;2.90;;
7031;SDS011;3557;48.880;8.328;2023-07-30T00:07:13;2.88;;;2.53;;
7031;SDS011;3557;48.880;8.328;2023-07-30T00:09:41;3.78;;;2.78;;
7031;SDS011;3557;48.880;8.328;2023-07-30T00:12:08;4.28;;;2.75;;
7031;SDS011;3557;48.880;8.328;2023-07-30T00:14:37;3.13;;;2.55;;
7031;SDS011;3557;48.880;8.328;2023-07-30T00:17:05;3.53;;;2.50;;
7031;SDS011;3557;48.880;8.328;2023-07-30T00:19:32;2.58;;;2.38;;
7031;SDS011;3557;48.880;8.328;2023-07-30T00:22:00;2.40;;;2.20;;
7031;SDS011;3557;48.880;8.328;2023-07-30T00:24:28;2.60;;;2.40;;
7031;SDS011;3557;48.880;8.328;2023-07-30T00:26:55;3.33;;;2.30;;
7031;SDS011;3557;48.880;8.328;2023-07-30T00:29:22;2.60;;;2.40;;
7031;SDS011;3557;48.880;8.328;2023-07-30T00:31:51;2.40;;;2.20;;
7031;SDS011;3557;48.880;8.328;2023-07-30T00:34:19;2.50;;;2.30;;
7031;SDS011;3557;48.880;8.328;2023-07-30T00:36:47;3.55;;;2.25;;
7031;SDS011;3557;48.880;8.328;2023-07-30T00:39:15;3.28;;;2.20;;
7031;SDS011;3557;48.880;8.328;2023-07-30T00:41:42;2.40;;;2.20;;
7031;SDS011;3557;48.880;8.328;2023-07-30T00:44:11;2.72;;;2.30;;
7031;SDS011;3557;48.880;8.328;2023-07-30T00:46:38;4.53;;;2.08;;
7031;SDS011;3557;48.880;8.328;2023-07-30T00:49:07;2.97;;;2.40;;
7031;SDS011;3557;48.880;8.328;2023-07-30T00:51:34;3.38;;;2.10;;
7031;SDS011;3557;48.880;8.328;2023-07-30T00:54:02;2.80;;;2.30;;
7031;SDS011;3557;48.880;8.328;2023-07-30T00:56:30;2.70;;;2.10;;
7031;SDS011;3557;48.880;8.328;2023-07-30T00:58:58;2.17;;;1.98;;
7031;SDS011;3557;48.880;8.328;2023-07-30T01:01:25;3.33;;;2.15;;
7031;SDS011;3557;48.880;8.328;2023-07-30T01:03:52;2.25;;;2.00;;
7031;SDS011;3557;48.880;8.328;2023-07-30T01:06:22;2.38;;;2.17;;
7031;SDS011;3557;48.880;8.328;2023-07-30T01:08:49;2.10;;;1.90;;
7031;SDS011;3557;48.880;8.328;2023-07-30T01:11:17;2.55;;;2.03;;
7031;SDS011;3557;48.880;8.328;2023-07-30T01:13:45;2.08;;;1.88;;
7031;SDS011;3557;48.880;8.328;2023-07-30T01:16:12;3.25;;;2.10;;
7031;SDS011;3557;48.880;8.328;2023-07-30T01:18:40;2.05;;;1.85;;
7031;SDS011;3557;48.880;8.328;2023-07-30T01:21:09;2.20;;;2.00;;
7031;SDS011;3557;48.880;8.328;2023-07-30T01:23:36;2.90;;;2.05;;
7031;SDS011;3557;48.880;8.328;2023-07-30T01:26:05;2.28;;;2.00;;
7031;SDS011;3557;48.880;8.328;2023-07-30T01:28:37;2.40;;;2.13;;
7031;SDS011;3557;48.880;8.328;2023-07-30T01:31:14;3.72;;;2.10;;
7031;SDS011;3557;48.880;8.328;2023-07-30T01:33:43;3.50;;;1.90;;
7031;SDS011;3557;48.880;8.328;2023-07-30T01:36:16;3.55;;;2.30;;
7031;SDS011;3557;48.880;8.328;2023-07-30T01:38:44;3.05;;;2.20;;
7031;SDS011;3557;48.880;8.328;2023-07-30T01:41:12;6.38;;;2.42;;
7031;SDS011;3557;48.880;8.328;2023-07-30T01:43:39;2.60;;;2.40;;
7031;SDS011;3557;48.880;8.328;2023-07-30T01:46:07;2.97;;;2.67;;
7031;SDS011;3557;48.880;8.328;2023-07-30T01:48:34;3.58;;;2.38;;
7031;SDS011;3557;48.880;8.328;2023-07-30T01:51:01;3.15;;;2.42;;
7031;SDS011;3557;48.880;8.328;2023-07-30T01:53:30;3.17;;;2.45;;
7031;SDS011;3557;48.880;8.328;2023-07-30T01:55:58;2.83;;;2.60;;
7031;SDS011;3557;48.880;8.328;2023-07-30T01:58:25;3.00;;;2.50;;
7031;SDS011;3557;48.880;8.328;2023-07-30T02:00:52;3.50;;;2.50;;
7031;SDS011;3557;48.880;8.328;2023-07-30T02:03:20;3.13;;;2.88;;
7031;SDS011;3557;48.880;8.328;2023-07-30T02:05:47;2.92;;;2.67;;
7031;SDS011;3557;48.880;8.328;2023-07-30T02:08:14;3.03;;;2.70;;
7031;SDS011;3557;48.880;8.328;2023-07-30T02:10:43;4.88;;;2.63;;
7031;SDS011;3557;48.880;8.328;2023-07-30T02:13:11;4.32;;;2.63;;
7031;SDS011;3557;48.880;8.328;2023-07-30T02:15:39;4.75;;;2.65;;
7031;SDS011;3557;48.880;8.328;2023-07-30T02:18:08;3.03;;;2.60;;
7031;SDS011;3557;48.880;8.328;2023-07-30T02:20:35;7.75;;;2.90;;
7031;SDS011;3557;48.880;8.328;2023-07-30T02:23:03;4.07;;;3.00;;
7031;SDS011;3557;48.880;8.328;2023-07-30T02:25:30;4.28;;;2.90;;
7031;SDS011;3557;48.880;8.328;2023-07-30T02:28:00;3.13;;;2.70;;
7031;SDS011;3557;48.880;8.328;2023-07-30T02:30:27;3.92;;;2.92;;
7031;SDS011;3557;48.880;8.328;2023-07-30T02:32:55;4.10;;;3.00;;
7031;SDS011;3557;48.880;8.328;2023-07-30T02:35:22;6.13;;;2.63;;
7031;SDS011;3557;48.880;8.328;2023-07-30T02:37:50;6.18;;;3.10;;
7031;SDS011;3557;48.880;8.328;2023-07-30T02:40:17;2.95;;;2.55;;
7031;SDS011;3557;48.880;8.328;2023-07-30T02:42:45;2.85;;;2.63;;
7031;SDS011;3557;48.880;8.328;2023-07-30T02:45:13;3.28;;;2.55;;
7031;SDS011;3557;48.880;8.328;2023-07-30T02:47:41;3.15;;;2.85;;
7031;SDS011;3557;48.880;8.328;2023-07-30T02:50:09;8.60;;;2.88;;
7031;SDS011;3557;48.880;8.328;2023-07-30T02:52:37;3.72;;;2.80;;
7031;SDS011;3557;48.880;8.328;2023-07-30T02:55:04;3.22;;;2.90;;
7031;SDS011;3557;48.880;8.328;2023-07-30T02:57:32;2.92;;;2.63;;
7031;SDS011;3557;48.880;8.328;2023-07-30T03:00:00;5.22;;;3.10;;
7031;SDS011;3557;48.880;8.328;2023-07-30T03:02:30;3.95;;;2.88;;
7031;SDS011;3557;48.880;8.328;2023-07-30T03:04:58;2.80;;;2.58;;
7031;SDS011;3557;48.880;8.328;2023-07-30T03:07:25;3.10;;;2.80;;
7031;SDS011;3557;48.880;8.328;2023-07-30T03:09:55;3.85;;;3.20;;
7031;SDS011;3557;48.880;8.328;2023-07-30T03:12:22;3.40;;;3.10;;
7031;SDS011;3557;48.880;8.328;2023-07-30T03:14:49;5.45;;;3.00;;
7031;SDS011;3557;48.880;8.328;2023-07-30T03:17:17;4.88;;;3.20;;
7031;SDS011;3557;48.880;8.328;2023-07-30T03:19:46;3.33;;;3.03;;
7031;SDS011;3557;48.880;8.328;2023-07-30T03:22:13;5.40;;;3.25;;
7031;SDS011;3557;48.880;8.328;2023-07-30T03:24:41;8.20;;;3.30;;
7031;SDS011;3557;48.880;8.328;2023-07-30T03:27:08;4.30;;;3.17;;
7031;SDS011;3557;48.880;8.328;2023-07-30T03:29:36;5.10;;;2.60;;
7031;SDS011;3557;48.880;8.328;2023-07-30T03:32:03;3.03;;;2.30;;
7031;SDS011;3557;48.880;8.328;2023-07-30T03:34:32;2.65;;;2.45;;
7031;SDS011;3557;48.880;8.328;2023-07-30T03:37:00;2.65;;;2.17;;
7031;SDS011;3557;48.880;8.328;2023-07-30T03:39:28;3.80;;;2.40;;
7031;SDS011;3557;48.880;8.328;2023-07-30T03:41:55;3.35;;;2.30;;
7031;SDS011;3557;48.880;8.328;2023-07-30T03:44:23;2.55;;;1.85;;
7031;SDS011;3557;48.880;8.328;2023-07-30T03:46:50;3.88;;;2.10;;
7031;SDS011;3557;48.880;8.328;2023-07-30T03:49:17;3.20;;;2.20;;
7031;SDS011;3557;48.880;8.328;2023-07-30T03:51:45;2.83;;;2.30;;
7031;SDS011;3557;48.880;8.328;2023-07-30T03:54:14;3.20;;;2.55;;
7031;SDS011;3557;48.880;8.328;2023-07-30T03:56:42;3.03;;;2.30;;
7031;SDS011;3557;48.880;8.328;2023-07-30T03:59:09;2.40;;;2.20;;
7031;SDS011;3557;48.880;8.328;2023-07-30T04:01:36;4.20;;;2.40;;
7031;SDS011;3557;48.880;8.328;2023-07-30T04:04:04;4.03;;;2.70;;
7031;SDS011;3557;48.880;8.328;2023-07-30T04:06:32;8.15;;;2.83;;
7031;SDS011;3557;48.880;8.328;2023-07-30T04:08:59;5.72;;;2.70;;
7031;SDS011;3557;48.880;8.328;2023-07-30T04:11:28;4.38;;;2.85;;
7031;SDS011;3557;48.880;8.328;2023-07-30T04:13:56;2.65;;;2.45;;
7031;SDS011;3557;48.880;8.328;2023-07-30T04:16:24;5.80;;;3.13;;
7031;SDS011;3557;48.880;8.328;2023-07-30T04:18:51;4.00;;;2.63;;
7031;SDS011;3557;48.880;8.328;2023-07-30T04:21:19;3.30;;;2.80;;
7031;SDS011;3557;48.880;8.328;2023-07-30T04:23:46;3.13;;;2.75;;
7031;SDS011;3557;48.880;8.328;2023-07-30T04:26:14;4.60;;;2.85;;
7031;SDS011;3557;48.880;8.328;2023-07-30T04:28:43;3.70;;;2.85;;
7031;SDS011;3557;48.880;8.328;2023-07-30T04:31:11;4.88;;;3.10;;
7031;SDS011;3557;48.880;8.328;2023-07-30T04:33:38;4.28;;;3.10;;
7031;SDS011;3557;48.880;8.328;2023-07-30T04:36:06;3.17;;;2.70;;
7031;SDS011;3557;48.880;8.328;2023-07-30T04:38:34;4.55;;;2.80;;
7031;SDS011;3557;48.880;8.328;2023-07-30T04:41:02;6.28;;;2.72;;
7031;SDS011;3557;48.880;8.328;2023-07-30T04:43:35;2.70;;;2.50;;
7031;SDS011;3557;48.880;8.328;2023-07-30T04:46:04;13.73;;;2.92;;
7031;SDS011;3557;48.880;8.328;2023-07-30T04:48:32;5.10;;;2.97;;
7031;SDS011;3557;48.880;8.328;2023-07-30T04:50:59;3.38;;;2.75;;
7031;SDS011;3557;48.880;8.328;2023-07-30T04:53:26;3.55;;;3.08;;
7031;SDS011;3557;48.880;8.328;2023-07-30T04:55:54;6.63;;;3.00;;
7031;SDS011;3557;48.880;8.328;2023-07-30T04:58:23;4.13;;;3.13;;
7031;SDS011;3557;48.880;8.328;2023-07-30T05:00:51;3.45;;;2.90;;
7031;SDS011;3557;48.880;8.328;2023-07-30T05:03:19;3.72;;;2.90;;
7031;SDS011;3557;48.880;8.328;2023-07-30T05:05:47;4.93;;;2.85;;
7031;SDS011;3557;48.880;8.328;2023-07-30T05:08:14;3.03;;;2.80;;
7031;SDS011;3557;48.880;8.328;2023-07-30T05:10:41;2.90;;;2.60;;
7031;SDS011;3557;48.880;8.328;2023-07-30T05:13:09;3.42;;;3.00;;
7031;SDS011;3557;48.880;8.328;2023-07-30T05:15:38;7.68;;;3.20;;
7031;SDS011;3557;48.880;8.328;2023-07-30T05:18:05;4.32;;;2.97;;
7031;SDS011;3557;48.880;8.328;2023-07-30T05:20:34;3.75;;;2.90;;
7031;SDS011;3557;48.880;8.328;2023-07-30T05:23:01;4.43;;;3.40;;
7031;SDS011;3557;48.880;8.328;2023-07-30T05:25:28;4.93;;;2.70;;
7031;SDS011;3557;48.880;8.328;2023-07-30T05:27:56;3.42;;;2.97;;
7031;SDS011;3557;48.880;8.328;2023-07-30T05:30:23;2.95;;;2.67;;
7031;SDS011;3557;48.880;8.328;2023-07-30T05:32:51;2.95;;;2.55;;
7031;SDS011;3557;48.880;8.328;2023-07-30T05:35:18;2.80;;;2.60;;
7031;SDS011;3557;48.880;8.328;2023-07-30T05:37:47;4.22;;;2.75;;
7031;SDS011;3557;48.880;8.328;2023-07-30T05:40:15;2.50;;;2.30;;
7031;SDS011;3557;48.880;8.328;2023-07-30T05:42:42;4.05;;;2.53;;
7031;SDS011;3557;48.880;8.328;2023-07-30T05:45:10;3.70;;;2.50;;
7031;SDS011;3557;48.880;8.328;2023-07-30T05:47:37;3.45;;;2.33;;
7031;SDS011;3557;48.880;8.328;2023-07-30T05:50:06;2.60;;;2.40;;
7031;SDS011;3557;48.880;8.328;2023-07-30T05:52:34;4.30;;;2.47;;
7031;SDS011;3557;48.880;8.328;2023-07-30T05:55:03;2.65;;;1.98;;
7031;SDS011;3557;48.880;8.328;2023-07-30T05:57:32;2.33;;;2.13;;
7031;SDS011;3557;48.880;8.328;2023-07-30T05:59:59;4.35;;;2.30;;
7031;SDS011;3557;48.880;8.328;2023-07-30T06:02:37;2.00;;;1.80;;
7031;SDS011;3557;48.880;8.328;2023-07-30T06:05:04;3.53;;;2.10;;
7031;SDS011;3557;48.880;8.328;2023-07-30T06:07:32;3.88;;;2.30;;
7031;SDS011;3557;48.880;8.328;2023-07-30T06:10:00;3.17;;;2.15;;
7031;SDS011;3557;48.880;8.328;2023-07-30T06:12:28;2.40;;;2.20;;
7031;SDS011;3557;48.880;8.328;2023-07-30T06:14:56;3.63;;;2.35;;
7031;SDS011;3557;48.880;8.328;2023-07-30T06:17:23;2.40;;;2.20;;
7031;SDS011;3557;48.880;8.328;2023-07-30T06:19:51;3.45;;;2.53;;
7031;SDS011;3557;48.880;8.328;2023-07-30T06:22:18;2.50;;;2.30;;
7031;SDS011;3557;48.880;8.328;2023-07-30T06:24:45;3.75;;;2.53;;
7031;SDS011;3557;48.880;8.328;2023-07-30T06:27:13;3.78;;;2.50;;
7031;SDS011;3557;48.880;8.328;2023-07-30T06:29:41;3.33;;;2.47;;
7031;SDS011;3557;48.880;8.328;2023-07-30T06:32:09;3.70;;;2.50;;
7031;SDS011;3557;48.880;8.328;2023-07-30T06:34:36;3.55;;;2.30;;
7031;SDS011;3557;48.880;8.328;2023-07-30T06:37:03;3.03;;;2.20;;
7031;SDS011;3557;48.880;8.328;2023-07-30T06:39:31;3.03;;;2.40;;
7031;SDS011;3557;48.880;8.328;2023-07-30T06:41:58;2.70;;;2.47;;
7031;SDS011;3557;48.880;8.328;2023-07-30T06:44:26;2.40;;;2.20;;
7031;SDS011;3557;48.880;8.328;2023-07-30T06:46:54;2.53;;;2.13;;
7031;SDS011;3557;48.880;8.328;2023-07-30T06:49:22;2.78;;;2.50;;
7031;SDS011;3557;48.880;8.328;2023-07-30T06:51:49;2.55;;;2.35;;
7031;SDS011;3557;48.880;8.328;2023-07-30T06:54:16;3.10;;;2.55;;
7031;SDS011;3557;48.880;8.328;2023-07-30T06:56:44;2.92;;;2.55;;
7031;SDS011;3557;48.880;8.328;2023-07-30T06:59:12;3.15;;;2.38;;
7031;SDS011;3557;48.880;8.328;2023-07-30T07:01:39;2.40;;;2.20;;
7031;SDS011;3557;48.880;8.328;2023-07-30T07:04:08;3.25;;;2.40;;
7031;SDS011;3557;48.880;8.328;2023-07-30T07:06:35;2.50;;;2.30;;
7031;SDS011;3557;48.880;8.328;2023-07-30T07:09:02;4.90;;;2.45;;
7031;SDS011;3557;48.880;8.328;2023-07-30T07:11:30;4.03;;;2.40;;
7031;SDS011;3557;48.880;8.328;2023-07-30T07:13:57;3.38;;;2.33;;
7031;SDS011;3557;48.880;8.328;2023-07-30T07:16:24;2.65;;;2.45;;
7031;SDS011;3557;48.880;8.328;2023-07-30T07:18:52;4.40;;;2.20;;
7031;SDS011;3557;48.880;8.328;2023-07-30T07:21:20;2.25;;;2.08;;
7031;SDS011;3557;48.880;8.328;2023-07-30T07:23:48;2.67;;;2.20;;
7031;SDS011;3557;48.880;8.328;2023-07-30T07:26:15;3.80;;;2.03;;
7031;SDS011;3557;48.880;8.328;2023-07-30T07:28:43;2.20;;;2.00;;
7031;SDS011;3557;48.880;8.328;2023-07-30T07:31:10;2.90;;;1.85;;
7031;SDS011;3557;48.880;8.328;2023-07-30T07:33:39;1.92;;;1.83;;
7031;SDS011;3557;48.880;8.328;2023-07-30T07:36:07;2.15;;;1.88;;
7031;SDS011;3557;48.880;8.328;2023-07-30T07:38:36;2.85;;;2.00;;
7031;SDS011;3557;48.880;8.328;2023-07-30T07:41:03;2.65;;;2.00;;
7031;SDS011;3557;48.880;8.328;2023-07-30T07:43:31;2.30;;;2.10;;
7031;SDS011;3557;48.880;8.328;2023-07-30T07:45:58;2.30;;;1.90;;
7031;SDS011;3557;48.880;8.328;2023-07-30T07:48:25;3.03;;;2.00;;
7031;SDS011;3557;48.880;8.328;2023-07-30T07:50:53;2.10;;;1.90;;
7031;SDS011;3557;48.880;8.328;2023-07-30T07:53:20;2.55;;;1.75;;
7031;SDS011;3557;48.880;8.328;2023-07-30T07:55:49;1.80;;;1.70;;
7031;SDS011;3557;48.880;8.328;2023-07-30T07:58:16;1.80;;;1.70;;
7031;SDS011;3557;48.880;8.328;2023-07-30T08:00:44;3.13;;;1.75;;
7031;SDS011;3557;48.880;8.328;2023-07-30T08:03:11;2.33;;;1.90;;
7031;SDS011;3557;48.880;8.328;2023-07-30T08:05:39;3.58;;;1.90;;
7031;SDS011;3557;48.880;8.328;2023-07-30T08:08:06;2.85;;;2.00;;
7031;SDS011;3557;48.880;8.328;2023-07-30T08:10:37;2.90;;;1.77;;
7031;SDS011;3557;48.880;8.328;2023-07-30T08:13:09;4.53;;;2.00;;
7031;SDS011;3557;48.880;8.328;2023-07-30T08:15:37;2.97;;;2.08;;
7031;SDS011;3557;48.880;8.328;2023-07-30T08:18:04;2.65;;;1.80;;
7031;SDS011;3557;48.880;8.328;2023-07-30T08:20:31;2.05;;;1.85;;
7031;SDS011;3557;48.880;8.328;2023-07-30T08:22:59;4.18;;;2.20;;
7031;SDS011;3557;48.880;8.328;2023-07-30T08:25:26;1.90;;;1.80;;
7031;SDS011;3557;48.880;8.328;2023-07-30T08:27:54;3.30;;;1.80;;
7031;SDS011;3557;48.880;8.328;2023-07-30T08:30:22;2.70;;;1.90;;
7031;SDS011;3557;48.880;8.328;2023-07-30T08:32:50;2.20;;;1.90;;
7031;SDS011;3557;48.880;8.328;2023-07-30T08:35:17;2.05;;;1.95;;
7031;SDS011;3557;48.880;8.328;2023-07-30T08:37:45;3.00;;;1.80;;
7031;SDS011;3557;48.880;8.328;2023-07-30T08:40:12;2.05;;;1.75;;
7031;SDS011;3557;48.880;8.328;2023-07-30T08:42:40;2.78;;;1.73;;
7031;SDS011;3557;48.880;8.328;2023-07-30T08:45:07;2.35;;;1.70;;
7031;SDS011;3557;48.880;8.328;2023-07-30T08:47:37;1.92;;;1.50;;
7031;SDS011;3557;48.880;8.328;2023-07-30T08:50:05;2.03;;;1.80;;
7031;SDS011;3557;48.880;8.328;2023-07-30T08:52:33;4.22;;;2.00;;
7031;SDS011;3557;48.880;8.328;2023-07-30T08:55:02;1.85;;;1.70;;
7031;SDS011;3557;48.880;8.328;2023-07-30T08:57:31;4.82;;;2.00;;
7031;SDS011;3557;48.880;8.328;2023-07-30T09:00:00;2.38;;;1.73;;
7031;SDS011;3557;48.880;8.328;2023-07-30T09:02:31;2.20;;;1.88;;
7031;SDS011;3557;48.880;8.328;2023-07-30T09:05:04;2.58;;;1.98;;
7031;SDS011;3557;48.880;8.328;2023-07-30T09:07:32;3.15;;;2.00;;
7031;SDS011;3557;48.880;8.328;2023-07-30T09:10:00;2.83;;;2.03;;
7031;SDS011;3557;48.880;8.328;2023-07-30T09:12:31;2.50;;;2.03;;
7031;SDS011;3557;48.880;8.328;2023-07-30T09:15:00;3.05;;;1.90;;
7031;SDS011;3557;48.880;8.328;2023-07-30T09:17:28;3.40;;;2.00;;
7031;SDS011;3557;48.880;8.328;2023-07-30T09:19:58;2.50;;;2.03;;
7031;SDS011;3557;48.880;8.328;2023-07-30T09:22:26;3.05;;;2.10;;
7031;SDS011;3557;48.880;8.328;2023-07-30T09:24:54;4.43;;;2.10;;
7031;SDS011;3557;48.880;8.328;2023-07-30T09:27:23;3.97;;;2.10;;
7031;SDS011;3557;48.880;8.328;2023-07-30T09:29:52;2.95;;;2.03;;
7031;SDS011;3557;48.880;8.328;2023-07-30T09:32:20;2.75;;;1.90;;
7031;SDS011;3557;48.880;8.328;2023-07-30T09:34:53;3.05;;;1.92;;
7031;SDS011;3557;48.880;8.328;2023-07-30T09:37:22;2.33;;;1.83;;
7031;SDS011;3557;48.880;8.328;2023-07-30T09:39:50;3.22;;;2.00;;
7031;SDS011;3557;48.880;8.328;2023-07-30T09:42:17;3.80;;;1.77;;
7031;SDS011;3557;48.880;8.328;2023-07-30T09:44:46;2.05;;;1.88;;
7031;SDS011;3557;48.880;8.328;2023-07-30T09:47:14;5.95;;;1.83;;
7031;SDS011;3557;48.880;8.328;2023-07-30T09:49:42;6.28;;;2.30;;
7031;SDS011;3557;48.880;8.328;2023-07-30T09:52:09;4.95;;;2.10;;
7031;SDS011;3557;48.880;8.328;2023-07-30T09:54:38;2.72;;;2.00;;
7031;SDS011;3557;48.880;8.328;2023-07-30T09:57:06;6.15;;;2.30;;
7031;SDS011;3557;48.880;8.328;2023-07-30T09:59:34;3.70;;;2.00;;
7031;SDS011;3557;48.880;8.328;2023-07-30T10:02:03;2.22;;;2.00;;
7031;SDS011;3557;48.880;8.328;2023-07-30T10:04:32;4.75;;;2.30;;
7031;SDS011;3557;48.880;8.328;2023-07-30T10:07:01;3.33;;;2.10;;
7031;SDS011;3557;48.880;8.328;2023-07-30T10:09:34;2.50;;;2.15;;
7031;SDS011;3557;48.880;8.328;2023-07-30T10:12:09;3.10;;;2.20;;
7031;SDS011;3557;48.880;8.328;2023-07-30T10:14:37;3.47;;;2.20;;
7031;SDS011;3557;48.880;8.328;2023-07-30T10:17:05;4.57;;;2.47;;
7031;SDS011;3557;48.880;8.328;2023-07-30T10:19:35;5.25;;;2.17;;
7031;SDS011;3557;48.880;8.328;2023-07-30T10:22:19;2.75;;;2.10;;
7031;SDS011;3557;48.880;8.328;2023-07-30T10:24:56;4.00;;;2.20;;
7031;SDS011;3557;48.880;8.328;2023-07-30T10:27:26;3.63;;;2.60;;
7031;SDS011;3557;48.880;8.328;2023-07-30T10:30:08;2.70;;;2.05;;
7031;SDS011;3557;48.880;8.328;2023-07-30T10:32:40;4.50;;;2.38;;
7031;SDS011;3557;48.880;8.328;2023-07-30T10:35:08;3.15;;;2.20;;
7031;SDS011;3557;48.880;8.328;2023-07-30T10:37:39;3.05;;;2.22;;
7031;SDS011;3557;48.880;8.328;2023-07-30T10:40:16;3.00;;;2.10;;
7031;SDS011;3557;48.880;8.328;2023-07-30T10:42:45;4.13;;;2.08;;
7031;SDS011;3557;48.880;8.328;2023-07-30T10:45:14;2.97;;;1.83;;
7031;SDS011;3557;48.880;8.328;2023-07-30T10:47:42;7.85;;;1.75;;
7031;SDS011;3557;48.880;8.328;2023-07-30T10:50:09;4.15;;;2.08;;
7031;SDS011;3557;48.880;8.328;2023-07-30T10:52:38;4.15;;;1.90;;
7031;SDS011;3557;48.880;8.328;2023-07-30T10:55:06;2.97;;;1.92;;
7031;SDS011;3557;48.880;8.328;2023-07-30T10:57:36;4.38;;;2.15;;
7031;SDS011;3557;48.880;8.328;2023-07-30T11:00:06;5.20;;;2.35;;
7031;SDS011;3557;48.880;8.328;2023-07-30T11:02:34;2.17;;;1.80;;
7031;SDS011;3557;48.880;8.328;2023-07-30T11:05:11;2.65;;;1.52;;
7031;SDS011;3557;48.880;8.328;2023-07-30T11:07:39;2.03;;;1.70;;
7031;SDS011;3557;48.880;8.328;2023-07-30T11:10:17;4.05;;;1.92;;
7031;SDS011;3557;48.880;8.328;2023-07-30T11:12:47;2.28;;;1.55;;
7031;SDS011;3557;48.880;8.328;2023-07-30T11:15:15;3.17;;;1.70;;
7031;SDS011;3557;48.880;8.328;2023-07-30T11:17:43;3.88;;;1.70;;
7031;SDS011;3557;48.880;8.328;2023-07-30T11:20:21;1.70;;;1.50;;
7031;SDS011;3557;48.880;8.328;2023-07-30T11:22:51;2.05;;;1.50;;
7031;SDS011;3557;48.880;8.328;2023-07-30T11:25:19;2.40;;;1.38;;
7031;SDS011;3557;48.880;8.328;2023-07-30T11:27:49;3.00;;;1.50;;
7031;SDS011;3557;48.880;8.328;2023-07-30T11:30:17;2.75;;;1.63;;
7031;SDS011;3557;48.880;8.328;2023-07-30T11:32:45;6.10;;;1.75;;
7031;SDS011;3557;48.880;8.328;2023-07-30T11:35:13;2.05;;;1.40;;
7031;SDS011;3557;48.880;8.328;2023-07-30T11:37:41;6.57;;;1.73;;
7031;SDS011;3557;48.880;8.328;2023-07-30T11:40:09;1.60;;;1.50;;
7031;SDS011;3557;48.880;8.328;2023-07-30T11:42:38;2.72;;;1.55;;
7031;SDS011;3557;48.880;8.328;2023-07-30T11:45:18;2.20;;;1.60;;
7031;SDS011;3557;48.880;8.328;2023-07-30T11:47:47;3.97;;;1.42;;
7031;SDS011;3557;48.880;8.328;2023-07-30T11:50:15;3.63;;;1.90;;
7031;SDS011;3557;48.880;8.328;2023-07-30T11:52:52;4.88;;;1.75;;
7031;SDS011;3557;48.880;8.328;2023-07-30T11:55:21;3.33;;;1.60;;
7031;SDS011;3557;48.880;8.328;2023-07-30T11:57:49;2.95;;;1.77;;
7031;SDS011;3557;48.880;8.328;2023-07-30T12:00:21;6.00;;;1.80;;
7031;SDS011;3557;48.880;8.328;2023-07-30T12:02:49;2.80;;;1.70;;
7031;SDS011;3557;48.880;8.328;2023-07-30T12:05:16;1.75;;;1.40;;
7031;SDS011;3557;48.880;8.328;2023-07-30T12:07:44;2.60;;;1.65;;
7031;SDS011;3557;48.880;8.328;2023-07-30T12:10:15;3.67;;;1.67;;
7031;SDS011;3557;48.880;8.328;2023-07-30T12:12:43;5.53;;;1.92;;
7031;SDS011;3557;48.880;8.328;2023-07-30T12:15:11;2.72;;;1.50;;
7031;SDS011;3557;48.880;8.328;2023-07-30T12:17:40;2.53;;;1.48;;
7031;SDS011;3557;48.880;8.328;2023-07-30T12:20:08;3.50;;;1.50;;
7031;SDS011;3557;48.880;8.328;2023-07-30T12:22:37;3.80;;;1.70;;
7031;SDS011;3557;48.880;8.328;2023-07-30T12:25:07;5.10;;;1.67;;
7031;SDS011;3557;48.880;8.328;2023-07-30T12:27:35;2.80;;;1.60;;
7031;SDS011;3557;48.880;8.328;2023-07-30T12:30:03;3.20;;;1.85;;
7031;SDS011;3557;48.880;8.328;2023-07-30T12:32:32;2.45;;;1.50;;
7031;SDS011;3557;48.880;8.328;2023-07-30T12:35:01;3.58;;;1.58;;
7031;SDS011;3557;48.880;8.328;2023-07-30T12:37:28;2.83;;;1.60;;
7031;SDS011;3557;48.880;8.328;2023-07-30T12:39:57;3.33;;;1.60;;
7031;SDS011;3557;48.880;8.328;2023-07-30T12:42:25;3.50;;;1.50;;
7031;SDS011;3557;48.880;8.328;2023-07-30T12:44:53;4.75;;;1.52;;
7031;SDS011;3557;48.880;8.328;2023-07-30T12:47:20;3.00;;;1.60;;
7031;SDS011;3557;48.880;8.328;2023-07-30T12:49:48;3.65;;;1.70;;
7031;SDS011;3557;48.880;8.328;2023-07-30T12:52:16;2.47;;;1.63;;
7031;SDS011;3557;48.880;8.328;2023-07-30T12:54:44;3.97;;;1.70;;
7031;SDS011;3557;48.880;8.328;2023-07-30T12:57:11;3.35;;;1.50;;
7031;SDS011;3557;48.880;8.328;2023-07-30T12:59:39;3.78;;;1.80;;
7031;SDS011;3557;48.880;8.328;2023-07-30T13:02:06;3.67;;;1.65;;
7031;SDS011;3557;48.880;8.328;2023-07-30T13:04:34;2.95;;;1.52;;
7031;SDS011;3557;48.880;8.328;2023-07-30T13:07:02;3.72;;;1.88;;
7031;SDS011;3557;48.880;8.328;2023-07-30T13:09:31;2.90;;;1.70;;
7031;SDS011;3557;48.880;8.328;2023-07-30T13:11:59;4.50;;;2.35;;
7031;SDS011;3557;48.880;8.328;2023-07-30T13:14:26;3.17;;;1.67;;
7031;SDS011;3557;48.880;8.328;2023-07-30T13:16:53;3.70;;;1.63;;
7031;SDS011;3557;48.880;8.328;2023-07-30T13:19:21;1.80;;;1.50;;
7031;SDS011;3557;48.880;8.328;2023-07-30T13:21:48;2.53;;;1.60;;
7031;SDS011;3557;48.880;8.328;2023-07-30T13:24:15;4.65;;;1.83;;
7031;SDS011;3557;48.880;8.328;2023-07-30T13:26:44;3.45;;;1.50;;
7031;SDS011;3557;48.880;8.328;2023-07-30T13:29:11;4.85;;;1.65;;
7031;SDS011;3557;48.880;8.328;2023-07-30T13:31:39;2.35;;;1.70;;
7031;SDS011;3557;48.880;8.328;2023-07-30T13:34:06;5.55;;;1.52;;
7031;SDS011;3557;48.880;8.328;2023-07-30T13:36:33;4.28;;;1.63;;
7031;SDS011;3557;48.880;8.328;2023-07-30T13:39:00;2.63;;;1.50;;
7031;SDS011;3557;48.880;8.328;2023-07-30T13:41:28;3.45;;;1.60;;
7031;SDS011;3557;48.880;8.328;2023-07-30T13:43:57;1.80;;;1.40;;
7031;SDS011;3557;48.880;8.328;2023-07-30T13:46:24;4.85;;;1.50;;
7031;SDS011;3557;48.880;8.328;2023-07-30T13:48:52;4.75;;;1.90;;
7031;SDS011;3557;48.880;8.328;2023-07-30T13:51:19;3.20;;;1.75;;
7031;SDS011;3557;48.880;8.328;2023-07-30T13:53:46;2.35;;;1.40;;
7031;SDS011;3557;48.880;8.328;2023-07-30T13:56:14;2.97;;;1.70;;
7031;SDS011;3557;48.880;8.328;2023-07-30T13:58:41;6.25;;;1.98;;
7031;SDS011;3557;48.880;8.328;2023-07-30T14:01:10;3.70;;;1.50;;
7031;SDS011;3557;48.880;8.328;2023-07-30T14:03:37;2.15;;;1.38;;
7031;SDS011;3557;48.880;8.328;2023-07-30T14:06:04;4.53;;;1.60;;
7031;SDS011;3557;48.880;8.328;2023-07-30T14:08:32;4.45;;;2.00;;
7031;SDS011;3557;48.880;8.328;2023-07-30T14:10:59;4.85;;;1.60;;
7031;SDS011;3557;48.880;8.328;2023-07-30T14:13:26;5.10;;;2.03;;
7031;SDS011;3557;48.880;8.328;2023-07-30T14:15:54;3.15;;;1.77;;
7031;SDS011;3557;48.880;8.328;2023-07-30T14:18:23;2.35;;;1.60;;
7031;SDS011;3557;48.880;8.328;2023-07-30T14:20:51;3.40;;;1.48;;
7031;SDS011;3557;48.880;8.328;2023-07-30T14:23:18;3.13;;;1.55;;
7031;SDS011;3557;48.880;8.328;2023-07-30T14:25:46;3.55;;;1.60;;
7031;SDS011;3557;48.880;8.328;2023-07-30T14:28:13;3.42;;;1.70;;
7031;SDS011;3557;48.880;8.328;2023-07-30T14:30:41;3.67;;;1.60;;
7031;SDS011;3557;48.880;8.328;2023-07-30T14:33:09;3.65;;;1.48;;
7031;SDS011;3557;48.880;8.328;2023-07-30T14:35:38;3.15;;;1.67;;
7031;SDS011;3557;48.880;8.328;2023-07-30T14:38:06;2.85;;;1.63;;
7031;SDS011;3557;48.880;8.328;2023-07-30T14:40:34;4.25;;;1.50;;
7031;SDS011;3557;48.880;8.328;2023-07-30T14:43:02;2.53;;;1.50;;
7031;SDS011;3557;48.880;8.328;2023-07-30T14:45:29;2.53;;;1.40;;
7031;SDS011;3557;48.880;8.328;2023-07-30T14:47:57;2.72;;;1.60;;
7031;SDS011;3557;48.880;8.328;2023-07-30T14:50:24;4.43;;;2.05;;
7031;SDS011;3557;48.880;8.328;2023-07-30T14:52:53;3.20;;;1.40;;
7031;SDS011;3557;48.880;8.328;2023-07-30T14:55:20;2.65;;;1.60;;
7031;SDS011;3557;48.880;8.328;2023-07-30T14:57:47;2.50;;;1.48;;
7031;SDS011;3557;48.880;8.328;2023-07-30T15:00:15;3.55;;;1.95;;
7031;SDS011;3557;48.880;8.328;2023-07-30T15:02:42;5.75;;;1.77;;
7031;SDS011;3557;48.880;8.328;2023-07-30T15:05:10;5.80;;;1.65;;
7031;SDS011;3557;48.880;8.328;2023-07-30T15:07:37;5.03;;;1.50;;
7031;SDS011;3557;48.880;8.328;2023-07-30T15:10:07;3.58;;;1.63;;
7031;SDS011;3557;48.880;8.328;2023-07-30T15:12:35;2.53;;;1.65;;
7031;SDS011;3557;48.880;8.328;2023-07-30T15:15:03;2.50;;;1.60;;
7031;SDS011;3557;48.880;8.328;2023-07-30T15:17:33;3.13;;;1.60;;
7031;SDS011;3557;48.880;8.328;2023-07-30T15:20:01;2.00;;;1.50;;
7031;SDS011;3557;48.880;8.328;2023-07-30T15:22:29;4.18;;;1.70;;